createdAt,value
2017-07-29T00:01:48.750Z,99.90
2017-07-29T00:04:15.010Z,99.90
2017-07-29T00:06:41.257Z,99.90
2017-07-29T00:09:07.528Z,99.90
2017-07-29T00:11:33.823Z,99.90
2017-07-29T00:14:00.094Z,99.90
2017-07-29T00:16:26.361Z,99.90
2017-07-29T00:18:52.621Z,99.90
2017-07-29T00:21:18.904Z,99.90
2017-07-29T00:23:45.176Z,99.90
2017-07-29T00:26:11.442Z,99.90
2017-07-29T00:28:37.737Z,99.90
2017-07-29T00:31:04.006Z,99.90
2017-07-29T00:33:30.270Z,99.90
2017-07-29T00:35:56.544Z,99.90
2017-07-29T00:38:23.833Z,99.90
2017-07-29T00:40:51.121Z,99.90
2017-07-29T00:43:17.376Z,99.90
2017-07-29T00:45:43.650Z,99.90
2017-07-29T00:48:09.931Z,99.90
2017-07-29T00:50:36.173Z,99.90
2017-07-29T00:53:02.428Z,99.90
2017-07-29T00:55:28.689Z,99.90
2017-07-29T00:57:54.940Z,99.90
2017-07-29T01:00:21.213Z,99.90
2017-07-29T01:02:47.469Z,99.90
2017-07-29T01:05:13.729Z,99.90
2017-07-29T01:07:39.990Z,99.90
2017-07-29T01:10:06.256Z,99.90
2017-07-29T01:12:32.517Z,99.90
2017-07-29T01:14:58.780Z,99.90
2017-07-29T01:17:25.042Z,99.90
2017-07-29T01:19:51.312Z,99.90
2017-07-29T01:22:18.869Z,99.90
2017-07-29T01:24:45.129Z,99.90
2017-07-29T01:27:11.384Z,99.90
2017-07-29T01:29:37.725Z,99.90
2017-07-29T01:32:03.995Z,99.90
2017-07-29T01:34:30.257Z,99.90
2017-07-29T01:36:56.509Z,99.90
2017-07-29T01:39:22.789Z,99.90
2017-07-29T01:41:49.150Z,99.90
2017-07-29T01:44:15.437Z,99.90
2017-07-29T01:46:41.716Z,99.90
2017-07-29T01:49:08.989Z,99.90
2017-07-29T01:51:36.025Z,99.90
2017-07-29T01:54:02.306Z,99.90
2017-07-29T01:56:28.587Z,99.90
2017-07-29T01:58:54.872Z,99.90
2017-07-29T02:01:21.145Z,99.90
2017-07-29T02:03:47.418Z,99.90
2017-07-29T02:06:14.671Z,99.90
2017-07-29T02:08:40.954Z,99.90
2017-07-29T02:11:07.215Z,99.90
2017-07-29T02:13:33.485Z,99.90
2017-07-29T02:15:59.738Z,99.90
2017-07-29T02:18:26.030Z,99.90
2017-07-29T02:20:52.286Z,99.90
2017-07-29T02:23:18.536Z,99.90
2017-07-29T02:25:45.534Z,99.90
2017-07-29T02:28:11.789Z,99.90
2017-07-29T02:30:38.067Z,99.90
2017-07-29T02:33:04.340Z,99.90
2017-07-29T02:35:30.589Z,99.90
2017-07-29T02:37:57.597Z,99.90
2017-07-29T02:40:23.852Z,99.90
2017-07-29T02:42:50.123Z,99.90
2017-07-29T02:45:16.389Z,99.90
2017-07-29T02:47:42.650Z,99.90
2017-07-29T02:50:09.641Z,99.90
2017-07-29T02:52:35.888Z,99.90
2017-07-29T02:55:02.169Z,99.90
2017-07-29T02:57:28.427Z,99.90
2017-07-29T02:59:55.717Z,99.90
2017-07-29T03:02:21.973Z,99.90
2017-07-29T03:04:48.981Z,99.90
2017-07-29T03:07:15.249Z,99.90
2017-07-29T03:09:42.241Z,99.90
2017-07-29T03:12:08.489Z,99.90
2017-07-29T03:14:35.507Z,99.90
2017-07-29T03:17:01.761Z,99.90
2017-07-29T03:19:29.016Z,99.90
2017-07-29T03:21:55.277Z,99.90
2017-07-29T03:24:21.552Z,99.90
2017-07-29T03:26:47.805Z,99.90
2017-07-29T03:29:14.041Z,99.90
2017-07-29T03:31:40.316Z,99.90
2017-07-29T03:34:06.565Z,99.90
2017-07-29T03:36:32.821Z,99.90
2017-07-29T03:38:59.068Z,99.90
2017-07-29T03:41:26.066Z,99.90
2017-07-29T03:43:52.345Z,99.90
2017-07-29T03:46:18.593Z,99.90
2017-07-29T03:48:44.842Z,99.90
2017-07-29T03:51:11.096Z,99.90
2017-07-29T03:53:37.373Z,99.90
2017-07-29T03:56:03.665Z,99.90
2017-07-29T03:58:29.921Z,99.90
2017-07-29T04:00:56.193Z,99.90
2017-07-29T04:03:22.448Z,99.90
2017-07-29T04:05:48.705Z,99.90
2017-07-29T04:08:15.720Z,99.90
2017-07-29T04:10:41.966Z,99.90
2017-07-29T04:13:08.981Z,99.90
2017-07-29T04:15:35.241Z,99.90
2017-07-29T04:18:01.493Z,99.90
2017-07-29T04:20:27.768Z,99.90
2017-07-29T04:22:54.028Z,99.90
2017-07-29T04:25:21.025Z,99.90
2017-07-29T04:27:47.288Z,99.90
2017-07-29T04:30:13.556Z,99.90
2017-07-29T04:32:39.816Z,99.90
2017-07-29T04:35:06.073Z,99.90
2017-07-29T04:37:32.329Z,99.90
2017-07-29T04:39:58.581Z,99.90
2017-07-29T04:42:24.840Z,99.90
2017-07-29T04:44:51.104Z,99.90
2017-07-29T04:47:18.088Z,99.90
2017-07-29T04:49:44.393Z,99.90
2017-07-29T04:52:10.641Z,99.90
2017-07-29T04:54:37.911Z,99.90
2017-07-29T04:57:04.547Z,99.90
2017-07-29T04:59:30.800Z,99.90
2017-07-29T05:01:57.045Z,99.90
2017-07-29T05:04:23.309Z,99.90
2017-07-29T05:06:49.569Z,99.90
2017-07-29T05:09:15.828Z,99.90
2017-07-29T05:11:42.084Z,99.90
2017-07-29T05:14:08.384Z,99.90
2017-07-29T05:16:34.645Z,99.90
2017-07-29T05:19:00.908Z,99.90
2017-07-29T05:21:27.173Z,99.90
2017-07-29T05:23:53.424Z,99.90
2017-07-29T05:26:19.705Z,99.90
2017-07-29T05:28:46.002Z,99.90
2017-07-29T05:31:12.259Z,99.90
2017-07-29T05:33:38.539Z,99.90
2017-07-29T05:36:05.552Z,99.90
2017-07-29T05:38:32.851Z,99.90
2017-07-29T05:40:59.119Z,99.90
2017-07-29T05:43:25.384Z,99.90
2017-07-29T05:45:52.400Z,99.90
2017-07-29T05:48:18.678Z,99.90
2017-07-29T05:50:44.949Z,99.90
2017-07-29T05:53:11.217Z,99.90
2017-07-29T05:55:37.656Z,99.90
2017-07-29T05:58:03.939Z,99.90
2017-07-29T06:00:30.188Z,99.90
2017-07-29T06:02:56.442Z,99.90
2017-07-29T06:05:23.432Z,99.90
2017-07-29T06:07:49.680Z,99.90
2017-07-29T06:10:15.948Z,99.90
2017-07-29T06:12:42.945Z,99.90
2017-07-29T06:15:09.205Z,99.90
2017-07-29T06:17:35.470Z,99.90
2017-07-29T06:20:01.728Z,99.90
2017-07-29T06:22:28.008Z,99.90
2017-07-29T06:24:54.996Z,99.90
2017-07-29T06:27:21.286Z,99.90
2017-07-29T06:29:48.285Z,99.90
2017-07-29T06:32:14.573Z,99.90
2017-07-29T06:34:40.854Z,99.90
2017-07-29T06:37:07.110Z,99.90
2017-07-29T06:39:34.098Z,99.90
2017-07-29T06:42:00.351Z,99.90
2017-07-29T06:44:27.614Z,99.90
2017-07-29T06:46:54.904Z,99.90
2017-07-29T06:49:21.158Z,99.90
2017-07-29T06:51:47.414Z,99.90
2017-07-29T06:54:13.668Z,99.90
2017-07-29T06:56:40.685Z,99.90
2017-07-29T06:59:06.929Z,99.90
2017-07-29T07:01:33.190Z,99.90
2017-07-29T07:03:59.461Z,99.90
2017-07-29T07:06:25.709Z,99.90
2017-07-29T07:08:51.969Z,99.90
2017-07-29T07:11:18.969Z,99.90
2017-07-29T07:13:45.209Z,99.90
2017-07-29T07:16:11.493Z,99.90
2017-07-29T07:18:37.732Z,99.90
2017-07-29T07:21:03.985Z,99.90
2017-07-29T07:23:30.260Z,99.90
2017-07-29T07:25:56.517Z,99.90
2017-07-29T07:28:22.785Z,99.90
2017-07-29T07:30:49.033Z,99.90
2017-07-29T07:33:17.032Z,99.90
2017-07-29T07:35:43.273Z,99.90
2017-07-29T07:38:09.530Z,99.90
2017-07-29T07:40:35.801Z,99.90
2017-07-29T07:43:02.072Z,99.90
2017-07-29T07:45:28.346Z,99.90
2017-07-29T07:47:55.356Z,99.90
2017-07-29T07:50:21.617Z,99.90
2017-07-29T07:52:48.642Z,99.90
2017-07-29T07:55:15.529Z,99.90
2017-07-29T07:57:41.784Z,98.90
2017-07-29T08:00:08.036Z,99.70
2017-07-29T08:02:34.293Z,99.90
2017-07-29T08:05:00.552Z,99.60
2017-07-29T08:07:27.807Z,99.90
2017-07-29T08:09:54.067Z,99.00
2017-07-29T08:12:20.315Z,96.90
2017-07-29T08:14:46.552Z,98.00
2017-07-29T08:17:13.565Z,97.90
2017-07-29T08:19:39.825Z,97.90
2017-07-29T08:22:06.824Z,98.20
2017-07-29T08:24:33.077Z,98.00
2017-07-29T08:26:59.326Z,95.40
2017-07-29T08:29:25.604Z,97.60
2017-07-29T08:31:51.847Z,97.80
2017-07-29T08:34:18.105Z,99.40
2017-07-29T08:36:45.364Z,98.30
2017-07-29T08:39:12.356Z,95.60
2017-07-29T08:41:38.625Z,95.60
2017-07-29T08:44:04.865Z,97.60
2017-07-29T08:46:31.865Z,93.10
2017-07-29T08:48:58.122Z,93.20
2017-07-29T08:51:24.369Z,94.70
2017-07-29T08:53:51.377Z,93.20
2017-07-29T08:56:17.645Z,93.20
2017-07-29T08:58:45.665Z,92.90
2017-07-29T09:01:11.916Z,92.90
2017-07-29T09:03:38.166Z,95.70
2017-07-29T09:06:04.466Z,92.10
2017-07-29T09:08:30.717Z,90.50
2017-07-29T09:10:56.961Z,89.30
2017-07-29T09:13:23.963Z,88.50
2017-07-29T09:15:50.218Z,88.60
2017-07-29T09:18:16.505Z,89.80
2017-07-29T09:20:42.765Z,85.70
2017-07-29T09:23:09.019Z,89.30
2017-07-29T09:25:36.017Z,86.80
2017-07-29T09:28:02.271Z,86.90
2017-07-29T09:30:28.533Z,87.20
2017-07-29T09:32:55.522Z,90.20
2017-07-29T09:35:21.774Z,90.20
2017-07-29T09:37:48.025Z,89.90
2017-07-29T09:40:15.024Z,89.40
2017-07-29T09:42:41.305Z,89.30
2017-07-29T09:45:08.321Z,85.00
2017-07-29T09:47:34.565Z,85.00
2017-07-29T09:50:00.814Z,87.10
2017-07-29T09:52:27.077Z,86.40
2017-07-29T09:54:53.353Z,82.70
2017-07-29T09:57:20.345Z,82.30
2017-07-29T09:59:46.594Z,82.20
2017-07-29T10:02:12.845Z,85.00
2017-07-29T10:04:39.096Z,85.00
2017-07-29T10:07:06.105Z,84.50
2017-07-29T10:09:32.360Z,84.30
2017-07-29T10:11:59.349Z,83.40
2017-07-29T10:14:25.602Z,83.30
2017-07-29T10:16:51.852Z,82.60
2017-07-29T10:19:18.129Z,84.00
2017-07-29T10:21:44.374Z,82.20
2017-07-29T10:24:10.625Z,81.30
2017-07-29T10:26:37.230Z,79.70
2017-07-29T10:29:03.487Z,80.90
2017-07-29T10:31:29.755Z,81.70
2017-07-29T10:33:56.005Z,80.50
2017-07-29T10:36:22.277Z,81.60
2017-07-29T10:38:48.522Z,85.00
2017-07-29T10:41:14.764Z,80.10
2017-07-29T10:43:41.781Z,78.90
2017-07-29T10:46:08.026Z,78.90
2017-07-29T10:48:35.006Z,76.30
2017-07-29T10:51:01.257Z,75.80
2017-07-29T10:53:27.517Z,74.70
2017-07-29T10:55:53.789Z,76.20
2017-07-29T10:58:20.048Z,76.40
2017-07-29T11:00:46.306Z,73.50
2017-07-29T11:03:12.569Z,72.70
2017-07-29T11:05:38.813Z,75.10
2017-07-29T11:08:05.087Z,71.60
2017-07-29T11:10:31.353Z,75.40
2017-07-29T11:12:57.641Z,70.70
2017-07-29T11:15:23.913Z,69.40
2017-07-29T11:17:50.184Z,73.00
2017-07-29T11:20:16.496Z,68.80
2017-07-29T11:22:42.749Z,71.90
2017-07-29T11:25:08.992Z,69.80
2017-07-29T11:27:35.236Z,66.00
2017-07-29T11:30:01.476Z,65.70
2017-07-29T11:32:27.749Z,66.30
2017-07-29T11:34:54.002Z,68.00
2017-07-29T11:37:20.244Z,65.60
2017-07-29T11:39:47.232Z,68.80
2017-07-29T11:42:13.485Z,68.70
2017-07-29T11:44:39.757Z,69.20
2017-07-29T11:47:06.024Z,71.20
2017-07-29T11:49:32.285Z,69.80
2017-07-29T11:51:58.540Z,69.10
2017-07-29T11:54:25.524Z,67.60
2017-07-29T11:56:51.793Z,67.70
2017-07-29T11:59:18.037Z,66.30
2017-07-29T12:01:45.038Z,66.70
2017-07-29T12:04:11.289Z,66.70
2017-07-29T12:06:38.290Z,66.60
2017-07-29T12:09:04.585Z,65.70
2017-07-29T12:11:31.577Z,68.40
2017-07-29T12:13:57.822Z,67.70
2017-07-29T12:16:24.068Z,68.90
2017-07-29T12:18:50.313Z,70.90
2017-07-29T12:21:17.328Z,69.70
2017-07-29T12:23:43.576Z,69.70
2017-07-29T12:26:09.833Z,69.20
2017-07-29T12:28:36.081Z,67.30
2017-07-29T12:31:02.340Z,65.70
2017-07-29T12:33:28.611Z,67.80
2017-07-29T12:35:54.875Z,68.50
2017-07-29T12:38:21.122Z,68.00
2017-07-29T12:40:47.371Z,66.30
2017-07-29T12:43:13.616Z,65.90
2017-07-29T12:45:39.891Z,61.00
2017-07-29T12:48:06.160Z,60.80
2017-07-29T12:50:32.417Z,62.30
2017-07-29T12:52:58.661Z,58.00
2017-07-29T12:55:24.917Z,55.70
2017-07-29T12:57:51.197Z,53.70
2017-07-29T13:00:18.184Z,55.30
2017-07-29T13:02:44.425Z,55.30
2017-07-29T13:05:10.665Z,57.20
2017-07-29T13:07:36.932Z,55.60
2017-07-29T13:10:03.240Z,58.60
2017-07-29T13:12:30.236Z,58.20
2017-07-29T13:14:56.493Z,58.00
2017-07-29T13:17:22.742Z,58.00
2017-07-29T13:19:49.024Z,55.40
2017-07-29T13:22:15.260Z,56.20
2017-07-29T13:24:41.507Z,53.40
2017-07-29T13:27:07.756Z,52.90
2017-07-29T13:29:34.004Z,52.80
2017-07-29T13:32:00.265Z,52.20
2017-07-29T13:34:26.520Z,52.70
2017-07-29T13:36:52.769Z,52.90
2017-07-29T13:39:19.049Z,53.30
2017-07-29T13:41:45.292Z,50.60
2017-07-29T13:44:11.540Z,53.60
2017-07-29T13:46:37.840Z,52.10
2017-07-29T13:49:04.090Z,53.70
2017-07-29T13:51:30.332Z,51.10
2017-07-29T13:53:56.585Z,47.40
2017-07-29T13:56:22.838Z,48.50
2017-07-29T13:58:49.126Z,48.00
2017-07-29T14:01:16.109Z,47.60
2017-07-29T14:03:42.353Z,48.10
2017-07-29T14:06:08.617Z,46.90
2017-07-29T14:08:34.874Z,45.30
2017-07-29T14:11:01.150Z,43.40
2017-07-29T14:13:27.402Z,44.70
2017-07-29T14:15:53.649Z,41.70
2017-07-29T14:18:20.645Z,43.60
2017-07-29T14:20:46.893Z,43.60
2017-07-29T14:23:13.161Z,46.00
2017-07-29T14:25:40.150Z,46.80
2017-07-29T14:28:06.401Z,46.80
2017-07-29T14:30:32.761Z,47.20
2017-07-29T14:32:59.752Z,44.00
2017-07-29T14:35:26.028Z,44.00
2017-07-29T14:37:52.277Z,44.80
2017-07-29T14:40:18.537Z,44.80
2017-07-29T14:42:44.784Z,45.00
2017-07-29T14:45:11.029Z,42.80
2017-07-29T14:47:37.336Z,40.50
2017-07-29T14:50:03.590Z,41.60
2017-07-29T14:52:29.836Z,42.40
2017-07-29T14:54:56.877Z,42.30
2017-07-29T14:57:23.901Z,40.20
2017-07-29T14:59:50.197Z,40.10
2017-07-29T15:02:16.452Z,41.10
2017-07-29T15:04:42.701Z,43.20
2017-07-29T15:07:08.977Z,45.10
2017-07-29T15:09:35.241Z,47.10
2017-07-29T15:12:01.930Z,47.60
2017-07-29T15:14:28.180Z,48.00
2017-07-29T15:16:54.417Z,48.90
2017-07-29T15:19:21.702Z,50.30
2017-07-29T15:21:47.962Z,51.30
2017-07-29T15:24:14.245Z,52.70
2017-07-29T15:26:40.504Z,53.60
2017-07-29T15:29:06.765Z,54.40
2017-07-29T15:31:33.025Z,54.70
2017-07-29T15:33:59.276Z,55.70
2017-07-29T15:36:25.567Z,56.20
2017-07-29T15:38:51.820Z,56.90
2017-07-29T15:41:18.057Z,57.40
2017-07-29T15:43:44.318Z,58.10
2017-07-29T15:46:10.568Z,57.90
2017-07-29T15:48:36.848Z,58.10
2017-07-29T15:51:04.901Z,58.70
2017-07-29T15:53:32.181Z,58.70
2017-07-29T15:55:59.192Z,59.20
2017-07-29T15:58:26.581Z,59.20
2017-07-29T16:00:54.194Z,59.90
2017-07-29T16:03:20.482Z,59.90
2017-07-29T16:05:46.736Z,61.30
2017-07-29T16:08:12.984Z,62.30
2017-07-29T16:10:40.249Z,62.70
2017-07-29T16:13:08.116Z,67.40
2017-07-29T16:15:34.381Z,66.50
2017-07-29T16:18:01.369Z,69.20
2017-07-29T16:20:27.633Z,69.20
2017-07-29T16:22:53.924Z,65.80
2017-07-29T16:25:20.181Z,65.80
2017-07-29T16:27:46.458Z,60.10
2017-07-29T16:30:12.721Z,54.00
2017-07-29T16:32:38.980Z,50.60
2017-07-29T16:35:05.990Z,52.40
2017-07-29T16:37:32.237Z,52.30
2017-07-29T16:39:58.489Z,52.10
2017-07-29T16:42:25.493Z,51.80
2017-07-29T16:44:51.738Z,51.70
2017-07-29T16:47:18.053Z,53.90
2017-07-29T16:49:44.302Z,55.30
2017-07-29T16:52:10.545Z,52.00
2017-07-29T16:54:37.545Z,47.50
2017-07-29T16:57:03.814Z,46.80
2017-07-29T16:59:30.841Z,43.10
2017-07-29T17:01:57.094Z,42.50
2017-07-29T17:04:24.093Z,39.00
2017-07-29T17:06:50.354Z,38.90
2017-07-29T17:09:16.623Z,39.50
2017-07-29T17:11:42.901Z,39.30
2017-07-29T17:14:09.157Z,40.00
2017-07-29T17:16:36.156Z,40.50
2017-07-29T17:19:02.413Z,40.40
2017-07-29T17:21:28.673Z,39.30
2017-07-29T17:23:54.945Z,40.50
2017-07-29T17:26:21.204Z,40.70
2017-07-29T17:28:47.457Z,42.50
2017-07-29T17:31:13.717Z,43.00
2017-07-29T17:33:39.973Z,45.30
2017-07-29T17:36:06.252Z,48.30
2017-07-29T17:38:32.501Z,49.50
2017-07-29T17:40:58.766Z,53.50
2017-07-29T17:43:25.177Z,53.30
2017-07-29T17:45:51.440Z,53.30
2017-07-29T17:48:17.716Z,54.20
2017-07-29T17:50:43.968Z,55.00
2017-07-29T17:53:10.236Z,58.40
2017-07-29T17:55:37.236Z,63.00
2017-07-29T17:58:03.493Z,62.90
2017-07-29T18:00:29.828Z,65.50
2017-07-29T18:02:56.091Z,66.60
2017-07-29T18:05:22.365Z,69.00
2017-07-29T18:07:48.618Z,70.60
2017-07-29T18:10:15.616Z,78.40
2017-07-29T18:12:41.880Z,78.30
2017-07-29T18:15:08.150Z,81.20
2017-07-29T18:17:34.400Z,85.70
2017-07-29T18:20:00.648Z,88.80
2017-07-29T18:22:26.897Z,89.20
2017-07-29T18:24:53.608Z,90.20
2017-07-29T18:27:19.872Z,91.30
2017-07-29T18:29:46.868Z,98.00
2017-07-29T18:32:13.125Z,97.90
2017-07-29T18:34:39.390Z,98.50
2017-07-29T18:37:05.661Z,99.50
2017-07-29T18:39:31.925Z,99.90
2017-07-29T18:41:59.201Z,99.90
2017-07-29T18:44:26.488Z,99.90
2017-07-29T18:46:52.740Z,99.90
2017-07-29T18:49:19.008Z,99.90
2017-07-29T18:51:46.005Z,99.90
2017-07-29T18:54:12.268Z,99.90
2017-07-29T18:56:39.265Z,99.90
2017-07-29T18:59:05.548Z,99.90
2017-07-29T19:01:32.577Z,99.90
2017-07-29T19:03:58.832Z,99.90
2017-07-29T19:06:25.824Z,99.90
2017-07-29T19:08:52.123Z,99.90
2017-07-29T19:11:18.405Z,99.90
2017-07-29T19:13:44.721Z,99.90
2017-07-29T19:16:10.981Z,99.90
2017-07-29T19:18:37.990Z,99.90
2017-07-29T19:21:04.257Z,99.90
2017-07-29T19:23:31.260Z,99.90
2017-07-29T19:25:57.577Z,99.90
2017-07-29T19:28:23.825Z,99.90
2017-07-29T19:30:50.086Z,99.90
2017-07-29T19:33:17.105Z,99.90
2017-07-29T19:35:43.371Z,99.90
2017-07-29T19:38:10.372Z,99.90
2017-07-29T19:40:36.616Z,99.90
2017-07-29T19:43:03.889Z,99.90
2017-07-29T19:45:30.894Z,99.90
2017-07-29T19:47:57.140Z,99.90
2017-07-29T19:50:23.400Z,99.90
2017-07-29T19:52:50.401Z,99.90
2017-07-29T19:55:16.665Z,99.90
2017-07-29T19:57:44.807Z,99.90
2017-07-29T20:00:11.101Z,99.90
2017-07-29T20:02:37.397Z,99.90
2017-07-29T20:05:04.404Z,99.90
2017-07-29T20:07:30.684Z,99.90
2017-07-29T20:09:56.958Z,99.90
2017-07-29T20:12:23.245Z,99.90
2017-07-29T20:14:50.250Z,99.90
2017-07-29T20:17:16.492Z,99.90
2017-07-29T20:19:42.733Z,99.90
2017-07-29T20:22:09.773Z,99.90
2017-07-29T20:24:36.034Z,99.90
2017-07-29T20:27:02.285Z,99.90
2017-07-29T20:29:28.542Z,99.90
2017-07-29T20:31:54.819Z,99.90
2017-07-29T20:34:21.101Z,99.90
2017-07-29T20:36:47.354Z,99.90
2017-07-29T20:39:14.350Z,99.90
2017-07-29T20:41:40.605Z,99.90
2017-07-29T20:44:06.864Z,99.90
2017-07-29T20:46:33.873Z,99.90
2017-07-29T20:49:00.131Z,99.90
2017-07-29T20:51:27.144Z,99.90
2017-07-29T20:53:53.401Z,99.90
2017-07-29T20:56:20.398Z,99.90
2017-07-29T20:58:46.661Z,99.90
2017-07-29T21:01:12.920Z,99.90
2017-07-29T21:03:39.917Z,99.90
2017-07-29T21:06:06.169Z,99.90
2017-07-29T21:08:32.424Z,99.90
2017-07-29T21:10:58.709Z,99.90
2017-07-29T21:13:24.965Z,99.90
2017-07-29T21:15:51.956Z,99.90
2017-07-29T21:18:18.210Z,99.90
2017-07-29T21:20:44.480Z,99.90
2017-07-29T21:23:11.497Z,99.90
2017-07-29T21:25:37.761Z,99.90
2017-07-29T21:28:04.017Z,99.90
2017-07-29T21:30:30.272Z,99.90
2017-07-29T21:32:56.524Z,99.90
2017-07-29T21:35:22.780Z,99.90
2017-07-29T21:37:49.034Z,99.90
2017-07-29T21:40:15.290Z,99.90
2017-07-29T21:42:41.541Z,99.90
2017-07-29T21:45:08.537Z,99.90
2017-07-29T21:47:34.812Z,99.90
2017-07-29T21:50:01.809Z,99.90
2017-07-29T21:52:28.061Z,99.90
2017-07-29T21:54:54.313Z,99.90
2017-07-29T21:57:22.334Z,99.90
2017-07-29T21:59:48.610Z,99.90
2017-07-29T22:02:14.862Z,99.90
2017-07-29T22:04:41.116Z,99.90
2017-07-29T22:07:07.353Z,99.90
2017-07-29T22:09:33.601Z,99.90
2017-07-29T22:11:59.894Z,99.90
2017-07-29T22:14:26.140Z,99.90
2017-07-29T22:16:52.393Z,99.90
2017-07-29T22:19:18.640Z,99.90
2017-07-29T22:21:44.901Z,99.90
2017-07-29T22:24:12.200Z,99.90
2017-07-29T22:26:39.462Z,99.90
2017-07-29T22:29:06.493Z,99.90
2017-07-29T22:31:32.762Z,99.90
2017-07-29T22:33:59.028Z,99.90
2017-07-29T22:36:25.298Z,99.90
2017-07-29T22:38:51.556Z,99.90
2017-07-29T22:41:17.809Z,99.90
2017-07-29T22:43:44.062Z,99.90
2017-07-29T22:46:10.314Z,99.90
2017-07-29T22:48:37.369Z,99.90
2017-07-29T22:51:04.400Z,99.90
2017-07-29T22:53:31.665Z,99.90
2017-07-29T22:55:58.666Z,99.90
2017-07-29T22:58:24.964Z,99.90
2017-07-29T23:00:51.229Z,99.90
2017-07-29T23:03:17.481Z,99.90
2017-07-29T23:05:43.737Z,99.90
2017-07-29T23:08:10.738Z,99.90
2017-07-29T23:10:38.009Z,99.90
2017-07-29T23:13:04.297Z,99.90
2017-07-29T23:15:30.577Z,99.90
2017-07-29T23:17:56.834Z,99.90
2017-07-29T23:20:23.093Z,99.90
2017-07-29T23:22:49.339Z,99.90
2017-07-29T23:25:16.662Z,99.90
2017-07-29T23:27:42.921Z,99.90
2017-07-29T23:30:09.162Z,99.90
2017-07-29T23:32:35.425Z,99.90
2017-07-29T23:35:01.678Z,99.90
2017-07-29T23:37:27.950Z,99.90
2017-07-29T23:39:54.204Z,99.90
2017-07-29T23:42:21.190Z,99.90
2017-07-29T23:44:48.468Z,99.90
2017-07-29T23:47:14.731Z,99.90
2017-07-29T23:49:41.005Z,99.90
2017-07-29T23:52:08.273Z,99.90
2017-07-29T23:54:35.540Z,99.90
2017-07-29T23:57:01.793Z,99.90
2017-07-29T23:59:29.053Z,99.90
